createdAt,value
2022-11-29T00:02:01.684Z,13.45
2022-11-29T00:07:03.287Z,12.48
2022-11-29T00:12:13.977Z,9.82
2022-11-29T00:17:15.478Z,20.30
2022-11-29T00:22:17.049Z,12.48
2022-11-29T00:27:18.510Z,14.30
2022-11-29T00:32:19.937Z,16.58
2022-11-29T00:37:21.388Z,16.98
2022-11-29T00:42:23.024Z,18.05
2022-11-29T00:47:24.516Z,20.13
2022-11-29T00:52:25.991Z,18.00
2022-11-29T00:57:27.473Z,24.00
2022-11-29T01:02:28.951Z,28.27
2022-11-29T01:07:30.442Z,23.92
2022-11-29T01:12:35.768Z,20.38
2022-11-29T01:17:39.151Z,23.05
2022-11-29T01:22:41.057Z,24.15
2022-11-29T01:27:42.547Z,24.60
2022-11-29T01:32:44.022Z,19.92
2022-11-29T01:37:45.499Z,16.83
2022-11-29T01:42:47.004Z,18.27
2022-11-29T01:47:52.031Z,18.33
2022-11-29T01:52:53.589Z,15.60
2022-11-29T01:57:54.998Z,20.60
2022-11-29T02:03:01.699Z,26.48
2022-11-29T02:08:03.259Z,23.10
2022-11-29T02:13:23.824Z,22.52
2022-11-29T02:24:00.819Z,21.27
2022-11-29T02:29:11.952Z,21.30
2022-11-29T02:34:42.821Z,20.38
2022-11-29T02:39:56.652Z,20.05
2022-11-29T02:45:14.485Z,20.52
2022-11-29T02:50:39.365Z,16.20
2022-11-29T02:55:52.526Z,15.00
2022-11-29T03:01:09.955Z,17.77
2022-11-29T03:06:11.354Z,15.88
2022-11-29T03:11:27.721Z,13.27
2022-11-29T03:17:12.916Z,13.23
2022-11-29T03:22:32.662Z,13.07
2022-11-29T03:27:46.295Z,12.93
2022-11-29T03:32:55.793Z,7.82
2022-11-29T03:38:14.879Z,14.00
2022-11-29T03:43:23.661Z,11.68
2022-11-29T03:48:25.097Z,15.52
2022-11-29T03:53:50.726Z,8.43
2022-11-29T03:58:57.440Z,9.32
2022-11-29T04:04:10.990Z,9.65
2022-11-29T04:09:21.678Z,10.80
2022-11-29T04:14:41.461Z,11.13
2022-11-29T04:19:57.983Z,8.10
2022-11-29T04:25:28.494Z,6.63
2022-11-29T04:30:44.499Z,9.85
2022-11-29T04:35:51.989Z,11.55
2022-11-29T04:41:11.079Z,7.68
2022-11-29T04:46:27.947Z,11.85
2022-11-29T04:52:04.923Z,13.68
2022-11-29T04:57:25.415Z,12.25
2022-11-29T05:02:56.019Z,7.68
2022-11-29T05:08:12.842Z,6.80
2022-11-29T05:13:31.359Z,9.60
2022-11-29T05:18:54.171Z,9.65
2022-11-29T05:24:11.044Z,13.30
2022-11-29T05:29:32.755Z,8.60
2022-11-29T05:35:09.879Z,14.68
2022-11-29T05:40:38.788Z,8.75
2022-11-29T05:45:52.530Z,11.13
2022-11-29T05:51:09.163Z,15.48
2022-11-29T05:56:29.392Z,11.90
2022-11-29T06:01:58.835Z,8.85
2022-11-29T06:07:12.041Z,11.85
2022-11-29T06:12:21.079Z,9.32
2022-11-29T06:17:42.166Z,8.00
2022-11-29T06:22:50.465Z,9.88
2022-11-29T06:28:10.496Z,8.50
2022-11-29T06:33:22.935Z,18.80
2022-11-29T06:38:30.140Z,12.80
2022-11-29T06:43:31.966Z,10.82
2022-11-29T06:48:45.720Z,13.82
2022-11-29T06:54:02.645Z,14.07
2022-11-29T06:59:25.827Z,13.75
2022-11-29T07:04:46.273Z,13.35
2022-11-29T07:09:52.140Z,14.80
2022-11-29T07:14:53.960Z,19.20
2022-11-29T07:20:31.121Z,20.45
2022-11-29T07:25:48.653Z,9.63
2022-11-29T07:31:09.175Z,12.82
2022-11-29T07:41:29.876Z,18.73
2022-11-29T07:46:31.409Z,20.67
2022-11-29T07:51:32.987Z,16.92
2022-11-29T07:56:34.463Z,16.65
2022-11-29T08:01:36.041Z,13.65
2022-11-29T08:06:38.094Z,16.55
2022-11-29T08:11:40.016Z,19.75
2022-11-29T08:16:41.592Z,22.63
2022-11-29T08:21:46.944Z,19.00
2022-11-29T08:26:49.010Z,14.85
2022-11-29T08:31:53.579Z,13.98
2022-11-29T08:36:56.465Z,19.17
2022-11-29T08:41:58.036Z,14.95
2022-11-29T08:47:17.929Z,18.58
2022-11-29T08:52:37.861Z,20.00
2022-11-29T08:57:40.748Z,21.63
2022-11-29T09:02:42.914Z,17.27
2022-11-29T09:07:44.578Z,15.52
2022-11-29T09:12:46.369Z,18.30
2022-11-29T09:17:47.831Z,17.05
2022-11-29T09:22:49.437Z,17.52
2022-11-29T09:27:51.766Z,21.08
2022-11-29T09:32:53.206Z,18.35
2022-11-29T09:37:54.714Z,18.23
2022-11-29T09:43:19.162Z,15.05
2022-11-29T09:48:31.046Z,14.50
2022-11-29T09:53:44.705Z,18.35
2022-11-29T09:58:54.686Z,19.15
2022-11-29T10:04:05.661Z,15.55
2022-11-29T10:09:13.240Z,16.45
2022-11-29T10:14:22.498Z,16.52
2022-11-29T10:19:39.026Z,15.93
2022-11-29T10:24:44.955Z,21.02
2022-11-29T10:29:50.292Z,17.45
2022-11-29T10:34:52.286Z,16.63
2022-11-29T10:40:02.055Z,15.25
2022-11-29T10:45:05.404Z,16.70
2022-11-29T10:50:07.699Z,16.23
2022-11-29T10:55:14.465Z,16.98
2022-11-29T11:00:16.479Z,19.98
2022-11-29T11:05:26.523Z,18.58
2022-11-29T11:10:30.875Z,19.95
2022-11-29T11:15:33.066Z,26.48
2022-11-29T11:20:41.095Z,26.33
2022-11-29T11:25:42.596Z,65.43
2022-11-29T11:30:58.862Z,74.32
2022-11-29T11:36:22.218Z,34.50
2022-11-29T11:41:45.158Z,24.77
2022-11-29T11:46:50.508Z,26.83
2022-11-29T11:51:52.214Z,23.85
2022-11-29T11:56:53.760Z,21.85
2022-11-29T12:01:55.311Z,23.25
2022-11-29T12:07:00.508Z,23.20
2022-11-29T12:12:23.724Z,24.52
2022-11-29T12:17:38.328Z,21.52
2022-11-29T12:23:03.697Z,20.55
2022-11-29T12:28:19.848Z,21.85
2022-11-29T12:33:47.150Z,21.50
2022-11-29T12:39:11.194Z,24.00
2022-11-29T12:44:38.280Z,26.48
2022-11-29T12:50:13.325Z,20.02
2022-11-29T12:55:21.006Z,23.63
2022-11-29T13:00:23.206Z,21.40
2022-11-29T13:05:42.595Z,24.83
2022-11-29T13:11:09.313Z,28.75
2022-11-29T13:16:47.818Z,20.10
2022-11-29T13:22:11.225Z,23.85
2022-11-29T13:27:44.839Z,24.35
2022-11-29T13:33:14.358Z,28.98
2022-11-29T13:38:37.057Z,29.27
2022-11-29T13:43:49.146Z,26.40
2022-11-29T13:48:53.502Z,29.30
2022-11-29T13:53:56.665Z,30.77
2022-11-29T13:59:00.997Z,25.08
2022-11-29T14:04:06.855Z,25.35
2022-11-29T14:09:23.390Z,31.10
2022-11-29T14:14:31.464Z,32.45
2022-11-29T14:19:37.224Z,29.63
2022-11-29T14:24:40.103Z,35.58
2022-11-29T14:29:47.374Z,30.02
2022-11-29T14:34:57.958Z,27.35
2022-11-29T14:45:20.951Z,22.63
2022-11-29T14:50:32.446Z,26.17
2022-11-29T14:55:36.990Z,25.85
2022-11-29T15:01:08.170Z,27.05
2022-11-29T15:06:23.262Z,25.05
2022-11-29T15:11:36.901Z,31.05
2022-11-29T15:16:59.677Z,22.75
2022-11-29T15:22:16.948Z,21.70
2022-11-29T15:27:18.881Z,23.58
2022-11-29T15:32:31.384Z,24.55
2022-11-29T15:37:36.588Z,25.75
2022-11-29T15:42:40.887Z,25.10
2022-11-29T15:47:42.387Z,25.08
2022-11-29T15:52:44.288Z,25.30
2022-11-29T15:57:51.007Z,27.73
2022-11-29T16:02:59.572Z,22.77
2022-11-29T16:08:04.864Z,18.52
2022-11-29T16:13:27.543Z,29.55
2022-11-29T16:18:28.991Z,36.28
2022-11-29T16:23:41.413Z,26.77
2022-11-29T16:28:45.587Z,31.83
2022-11-29T16:33:49.191Z,28.63
2022-11-29T16:38:58.200Z,34.03
2022-11-29T16:44:03.267Z,32.25
2022-11-29T16:49:31.908Z,34.88
2022-11-29T16:54:34.347Z,36.67
2022-11-29T16:59:38.647Z,54.03
2022-11-29T17:04:40.702Z,51.50
2022-11-29T17:09:42.684Z,64.18
2022-11-29T17:14:44.450Z,62.85
2022-11-29T17:19:46.191Z,46.85
2022-11-29T17:24:48.641Z,55.60
2022-11-29T17:29:50.235Z,53.60
2022-11-29T17:34:51.839Z,54.13
2022-11-29T17:39:53.306Z,54.75
2022-11-29T17:44:54.778Z,55.53
2022-11-29T17:49:56.293Z,61.15
2022-11-29T17:54:57.755Z,69.63
2022-11-29T17:59:59.261Z,76.68
2022-11-29T18:05:00.831Z,65.63
2022-11-29T18:10:02.410Z,52.00
2022-11-29T18:15:05.352Z,45.17
2022-11-29T18:20:07.545Z,45.42
2022-11-29T18:25:36.877Z,41.88
2022-11-29T18:30:30.868Z,39.47
2022-11-29T18:35:32.334Z,54.05
2022-11-29T18:40:33.812Z,45.97
2022-11-29T18:45:38.281Z,41.60
2022-11-29T18:50:39.840Z,36.95
2022-11-29T18:55:41.363Z,36.65
2022-11-29T19:00:43.282Z,35.83
2022-11-29T19:05:52.962Z,47.50
2022-11-29T19:10:54.491Z,47.80
2022-11-29T19:15:56.199Z,45.95
2022-11-29T19:21:05.354Z,51.28
2022-11-29T19:26:09.774Z,41.28
2022-11-29T19:31:13.249Z,44.97
2022-11-29T19:36:22.428Z,43.50
2022-11-29T19:41:26.937Z,46.42
2022-11-29T19:46:40.245Z,35.20
2022-11-29T19:51:41.877Z,41.17
2022-11-29T19:56:43.679Z,40.42
2022-11-29T20:01:45.328Z,46.67
2022-11-29T20:06:47.564Z,35.38
2022-11-29T20:11:49.024Z,40.20
2022-11-29T20:16:50.537Z,36.83
2022-11-29T20:21:52.096Z,43.88
2022-11-29T20:26:53.677Z,53.70
2022-11-29T20:31:55.253Z,39.70
2022-11-29T20:36:59.741Z,46.85
2022-11-29T20:42:29.559Z,50.25
2022-11-29T20:47:40.209Z,52.70
2022-11-29T20:53:00.513Z,48.05
2022-11-29T20:58:02.162Z,37.40
2022-11-29T21:03:03.741Z,48.90
2022-11-29T21:08:05.499Z,51.70
2022-11-29T21:13:07.697Z,55.83
2022-11-29T21:18:20.493Z,58.30
2022-11-29T21:23:39.394Z,53.78
2022-11-29T21:28:55.441Z,53.85
2022-11-29T21:33:57.697Z,45.28
2022-11-29T21:39:03.646Z,51.40
2022-11-29T21:44:08.024Z,46.60
2022-11-29T21:49:09.859Z,43.13
2022-11-29T21:54:11.345Z,40.92
2022-11-29T21:59:12.878Z,42.33
2022-11-29T22:04:14.425Z,40.97
2022-11-29T22:09:16.146Z,38.60
2022-11-29T22:14:20.680Z,38.47
2022-11-29T22:19:29.463Z,39.80
2022-11-29T22:24:34.788Z,35.20
2022-11-29T22:29:36.236Z,37.50
2022-11-29T22:34:37.752Z,30.77
2022-11-29T22:39:39.240Z,27.15
2022-11-29T22:44:40.777Z,29.17
2022-11-29T22:49:44.477Z,31.13
2022-11-29T22:54:46.194Z,34.83
2022-11-29T22:59:47.854Z,28.55
2022-11-29T23:04:49.607Z,34.83
2022-11-29T23:09:51.098Z,37.80
2022-11-29T23:14:56.384Z,33.60
2022-11-29T23:19:58.442Z,33.05
2022-11-29T23:25:00.001Z,28.52
2022-11-29T23:30:01.565Z,34.72
2022-11-29T23:35:03.168Z,31.13
2022-11-29T23:40:05.901Z,32.88
2022-11-29T23:45:07.562Z,35.78
2022-11-29T23:50:10.647Z,43.78
2022-11-29T23:55:14.461Z,48.97
